Norilsk-Alykel Airport
UOOO : now visible

Airfield :











YOU CAN JOIN US ON...

 
LOGIN :

Register | Disclaimer

   EN    FR    IT 

 









Legend :    VFR   Marginal VFR   IFR   Intensive IFR   Very Intensive IFR
Visi :
Ceiling :
>= 8 km
>= 3000ft
5 to 8 km
1000 to 3000 ft
1500m to 5 km
500 to 1000 ft
800 to 1500m
200 to 500 ft
< 800m
< 200 ft
Symbols :   Thunderstorms  Fog  Heavy snow  Heavy precipitations  Wind > 20 kt






- Airport Elevation : 574 ft
- IATA code : NSK


UOOO - Norilsk-Alykel

CURRENT METAR :
  • 211900Z 17005MPS CAVOK M38/M42 Q1004 R19/39//45 NOSIG RMK QFE737/0983

EXPIRED METARs :
  • 211800Z 18005MPS CAVOK M39/M42 Q1004 R19/39//45 NOSIG RMK QFE737/0983
  • 211700Z 18005MPS CAVOK M40/M44 Q1004 R19/39//45 NOSIG RMK QFE737/0982

TAF TAF UOOO
Valid from the 21 at 18:00 until the 22 at 18:00 UTC


211700Z 2118/2218 16007G13MPS 4000 DRSN BR SCT020
TEMPO 2118/2207 1000 BR SCT003 BKN015
BECMG 2205/2207 15010G17MPS
TEMPO 2207/2218 0700 -SN BLSN SCT005 BKN010



MET'MAP, your aeronautical weather chart ! - Copyright ORBIFLY December 2007 - Disclaimer

ORBIFLY MET'MAP TEAM :

Programming & Development : Alexandra Zaïnal
Concept & original design : Baudouin d'Aumeries
Assistance for programming : Marc-Olivier Méhu
Technical & hardware support : Manuel Goepfert

Contact : metmap@orbifly.com




SOURCES & CREDITS :

   NOAA       Earth
Advisory